ΕΜΥ, Εθνική Μετεωρολογική Υπηρεσία - Δελτία Καιρού, Προγνώσεις

ΑΕΡΟΝΑΥΤΙΛΙΑ

GREEK AIRPORTS CODES

TAF LGIR 281700Z 2818/2918 20010KT 9999 SCT020 SCT080 BECMG 2822/2824 27012KT PROB40 TEMPO 2906/2915 5000 RA FEW018TCU BKN020 BKN080 BECMG 2910/2912 33012KT=

EUROPEAN AIRPORTS CODES